Nearby METAR Reports

 

KFWA - Fort Wayne, Indiana, USA
Distance from station: ENE 19mi, 31km
Updated: Sun, 17-Dec-2017 11:54pm EST
Overcast
Overcast
 Wind from SW
Wind: SW 7 mph , 11 km/h
Temperature: 39°F , 4°C
Wind Chill: 34°F , 1°C
Dew Point: 36°F , 2°C
Humidity: 87%
Barometer: 30.05 inHg , 1017.6 hPa
Clouds: Overcast
Visibility: 10 miles , 16 km
Cloud details: Overcast 5500 ft
2017/12/18 04:54 KFWA 180454Z 23006KT 10SM OVC055 04/02 A3005 RMK AO2 SLP183 T00390022 400501033 $
KASW - Warsaw Muni, Indiana, USA
Distance from station: NNW 28mi, 45km
Updated: Sun, 17-Dec-2017 11:55pm EST
Overcast
Overcast
 Wind from SSW
Wind: SSW 5 mph , 7 km/h
Temperature: 39°F , 4°C
Wind Chill: 35°F , 2°C
Dew Point: 37°F , 3°C
Humidity: 93%
Barometer: 30.03 inHg , 1016.9 hPa
Clouds: Overcast
Visibility: 10 miles , 16 km
Cloud details: Partly cloudy 1100 ft
Overcast 6000 ft
2017/12/18 04:55 KASW 180455Z AUTO 21004KT 10SM SCT011 OVC060 04/03 A3003 RMK AO2
 
KMZZ - Marion Muni, Indiana, USA
Distance from station: SSW 32mi, 51km
Updated: Sun, 17-Dec-2017 11:55pm EST
Overcast
Overcast
 Wind from S
Wind: S 7 mph , 11 km/h
Temperature: 37°F , 3°C
Wind Chill: 32°F , 0°C
Dew Point: 36°F , 2°C
Humidity: 93%
Barometer: 30.06 inHg , 1017.9 hPa
Clouds: Overcast
Visibility: 10 miles , 16 km
Cloud details: Mostly cloudy 2000 ft
Overcast 6000 ft
2017/12/18 04:55 KMZZ 180455Z AUTO 19006KT 10SM BKN020 OVC060 03/02 A3006 RMK AO2 T00300015
KRCR - Rochester, Indiana, USA
Distance from station: WNW 35mi, 56km
Updated: Sun, 17-Dec-2017 11:55pm EST
Mostly cloudy
Mostly cloudy
 Wind from SSW
Wind: SSW 8 mph , 13 km/h
Temperature: 41°F , 5°C
Wind Chill: 36°F , 2°C
Dew Point: 39°F , 4°C
Humidity: 93%
Barometer: 30.03 inHg , 1016.9 hPa
Clouds: Mostly cloudy
Visibility: 10 miles , 16 km
Cloud details: Mostly cloudy 6000 ft
2017/12/18 04:55 KRCR 180455Z AUTO 21007KT 10SM BKN060 05/04 A3003 RMK AO2
 
KGWB - Auburn Dekalb C, Indiana, USA
Distance from station: NE 36mi, 58km
Updated: Sun, 17-Dec-2017 11:55pm EST
Overcast
Overcast
 Wind from SSW
Wind: SSW 3 mph , 6 km/h
Temperature: 39°F , 4°C
Dew Point: 36°F , 2°C
Humidity: 87%
Barometer: 30.04 inHg , 1017.3 hPa
Clouds: Overcast
Visibility: 10 miles , 16 km
Cloud details: Overcast 4800 ft
2017/12/18 04:55 KGWB 180455Z AUTO 21003KT 10SM OVC048 04/02 A3004 RMK AO2
KGUS - Grissom Afb/Peru, Indiana, USA
Distance from station: WSW 38mi, 60km
Updated: Sun, 17-Dec-2017 11:56pm EST
Overcast
Overcast
 Wind from SSW
Wind: SSW 8 mph , 13 km/h
Temperature: 39°F , 4°C
Wind Chill: 33°F , 1°C
Dew Point: 39°F , 4°C
Humidity: 100%
Barometer: 30.03 inHg , 1016.9 hPa
Clouds: Overcast
Visibility: 10 miles , 16 km
Cloud details: Overcast 6000 ft
2017/12/18 04:56 KGUS 180456Z AUTO 21007KT 10SM OVC060 04/04 A3003 RMK AO2 SLP178 T00430043 400501002 $